createdAt,value
2023-01-27T00:01:19.392Z,3.09
2023-01-27T00:03:46.423Z,2.66
2023-01-27T00:06:13.495Z,2.79
2023-01-27T00:08:43.289Z,3.01
2023-01-27T00:11:09.934Z,3.08
2023-01-27T00:13:36.576Z,3.16
2023-01-27T00:16:06.331Z,3.33
2023-01-27T00:18:33.022Z,3.47
2023-01-27T00:20:59.838Z,3.51
2023-01-27T00:23:27.595Z,3.59
2023-01-27T00:25:54.117Z,3.67
2023-01-27T00:28:20.623Z,3.68
2023-01-27T00:30:47.127Z,3.38
2023-01-27T00:33:13.702Z,3.82
2023-01-27T00:36:08.134Z,3.86
2023-01-27T00:38:36.272Z,3.87
2023-01-27T00:41:02.770Z,3.78
2023-01-27T00:43:29.373Z,4.09
2023-01-27T00:45:55.935Z,4.06
2023-01-27T00:48:22.529Z,4.14
2023-01-27T00:50:49.083Z,4.03
2023-01-27T00:53:15.605Z,4.07
2023-01-27T00:55:42.183Z,3.64
2023-01-27T00:58:08.679Z,3.78
2023-01-27T01:00:35.235Z,3.83
2023-01-27T01:03:01.877Z,3.46
2023-01-27T01:05:28.459Z,3.16
2023-01-27T01:07:54.936Z,3.16
2023-01-27T01:10:21.491Z,2.74
2023-01-27T01:12:48.098Z,2.63
2023-01-27T01:15:15.037Z,2.89
2023-01-27T01:17:41.685Z,3.10
2023-01-27T01:20:09.104Z,3.25
2023-01-27T01:22:35.727Z,3.19
2023-01-27T01:25:02.257Z,3.11
2023-01-27T01:27:28.833Z,2.43
2023-01-27T01:29:55.404Z,2.74
2023-01-27T01:32:22.007Z,2.80
2023-01-27T01:34:48.487Z,2.79
2023-01-27T01:37:15.001Z,2.71
2023-01-27T01:39:41.503Z,3.27
2023-01-27T01:42:07.991Z,2.90
2023-01-27T01:44:34.507Z,2.58
2023-01-27T01:47:01.203Z,2.70
2023-01-27T01:49:39.356Z,2.91
2023-01-27T01:52:15.089Z,2.61
2023-01-27T01:54:47.244Z,2.95
2023-01-27T01:57:23.079Z,2.68
2023-01-27T02:00:01.778Z,2.79
2023-01-27T02:02:31.261Z,2.48
2023-01-27T02:05:06.175Z,3.03
2023-01-27T02:07:46.630Z,2.58
2023-01-27T02:10:13.886Z,2.83
2023-01-27T02:12:40.627Z,2.96
2023-01-27T02:15:08.698Z,3.23
2023-01-27T02:17:35.665Z,3.34
2023-01-27T02:20:02.088Z,3.28
2023-01-27T02:22:59.464Z,3.28
2023-01-27T02:25:34.905Z,3.42
2023-01-27T02:28:02.542Z,3.53
2023-01-27T02:30:29.780Z,2.80
2023-01-27T02:32:56.467Z,2.79
2023-01-27T02:35:33.282Z,3.23
2023-01-27T02:38:00.585Z,3.15
2023-01-27T02:40:30.156Z,3.62
2023-01-27T02:42:57.633Z,3.52
2023-01-27T02:45:24.260Z,3.47
2023-01-27T02:47:50.781Z,3.51
2023-01-27T02:50:17.964Z,3.58
2023-01-27T02:52:44.487Z,3.78
2023-01-27T02:55:11.263Z,4.03
2023-01-27T02:57:37.937Z,3.99
2023-01-27T03:00:04.863Z,4.27
2023-01-27T03:02:31.374Z,4.24
2023-01-27T03:04:58.043Z,3.96
2023-01-27T03:07:25.607Z,4.06
2023-01-27T03:09:52.580Z,3.72
2023-01-27T03:12:19.057Z,3.60
2023-01-27T03:14:46.231Z,3.12
2023-01-27T03:17:12.716Z,3.46
2023-01-27T03:19:39.355Z,3.20
2023-01-27T03:22:05.868Z,2.92
2023-01-27T03:24:32.407Z,3.39
2023-01-27T03:26:58.938Z,3.70
2023-01-27T03:29:25.423Z,3.35
2023-01-27T03:31:51.988Z,3.39
2023-01-27T03:34:18.544Z,3.46
2023-01-27T03:36:45.064Z,3.60
2023-01-27T03:39:11.541Z,3.25
2023-01-27T03:41:39.222Z,3.57
2023-01-27T03:44:05.691Z,2.73
2023-01-27T03:46:32.186Z,2.87
2023-01-27T03:48:58.994Z,3.08
2023-01-27T03:51:26.930Z,2.83
2023-01-27T03:53:53.835Z,3.24
2023-01-27T03:56:21.700Z,2.90
2023-01-27T03:58:49.959Z,3.42
2023-01-27T04:01:22.194Z,3.15
2023-01-27T04:03:50.773Z,2.98
2023-01-27T04:06:21.580Z,2.53
2023-01-27T04:08:48.085Z,2.88
2023-01-27T04:11:14.762Z,3.23
2023-01-27T04:13:41.302Z,3.35
2023-01-27T04:16:07.847Z,2.70
2023-01-27T04:18:34.363Z,2.93
2023-01-27T04:21:00.891Z,2.85
2023-01-27T04:23:27.415Z,2.89
2023-01-27T04:25:54.031Z,2.80
2023-01-27T04:28:37.234Z,2.57
2023-01-27T04:31:07.187Z,2.39
2023-01-27T04:33:33.753Z,2.47
2023-01-27T04:36:00.428Z,2.86
2023-01-27T04:38:27.051Z,2.24
2023-01-27T04:40:53.557Z,2.60
2023-01-27T04:43:20.055Z,2.92
2023-01-27T04:45:46.562Z,3.13
2023-01-27T04:48:13.140Z,3.44
2023-01-27T04:50:39.632Z,3.54
2023-01-27T04:53:06.107Z,3.81
2023-01-27T04:55:32.611Z,3.01
2023-01-27T04:57:59.252Z,3.12
2023-01-27T05:00:25.865Z,3.04
2023-01-27T05:02:52.393Z,2.98
2023-01-27T05:05:18.953Z,3.47
2023-01-27T05:07:45.446Z,3.44
2023-01-27T05:10:12.155Z,3.28
2023-01-27T05:12:38.711Z,3.09
2023-01-27T05:15:05.791Z,3.32
2023-01-27T05:17:33.433Z,2.90
2023-01-27T05:19:59.961Z,3.00
2023-01-27T05:22:26.475Z,3.36
2023-01-27T05:24:53.057Z,3.08
2023-01-27T05:27:19.585Z,2.69
2023-01-27T05:29:46.120Z,2.84
2023-01-27T05:32:12.899Z,2.32
2023-01-27T05:34:39.552Z,2.87
2023-01-27T05:37:06.102Z,2.92
2023-01-27T05:39:32.623Z,3.00
2023-01-27T05:41:59.269Z,3.15
2023-01-27T05:44:25.791Z,3.18
2023-01-27T05:46:52.259Z,3.43
2023-01-27T05:49:18.902Z,3.55
2023-01-27T05:51:45.389Z,3.53
2023-01-27T05:54:11.858Z,3.17
2023-01-27T05:56:38.656Z,2.38
2023-01-27T05:59:05.143Z,2.68
2023-01-27T06:01:34.032Z,2.81
2023-01-27T06:04:01.296Z,3.10
2023-01-27T06:06:30.436Z,2.81
2023-01-27T06:08:57.134Z,3.29
2023-01-27T06:11:24.204Z,3.29
2023-01-27T06:13:52.457Z,3.32
2023-01-27T06:16:21.400Z,3.25
2023-01-27T06:18:48.699Z,3.50
2023-01-27T06:21:17.984Z,2.54
2023-01-27T06:23:44.547Z,2.95
2023-01-27T06:26:14.581Z,3.06
2023-01-27T06:28:41.070Z,3.34
2023-01-27T06:31:15.240Z,3.38
2023-01-27T06:33:41.885Z,3.11
2023-01-27T06:36:12.078Z,3.04
2023-01-27T06:38:38.713Z,3.06
2023-01-27T06:41:05.649Z,2.89
2023-01-27T06:43:32.239Z,2.68
2023-01-27T06:45:58.817Z,2.69
2023-01-27T06:48:27.107Z,3.13
2023-01-27T06:50:55.794Z,3.22
2023-01-27T06:53:23.478Z,3.18
2023-01-27T06:55:55.716Z,3.26
2023-01-27T06:58:22.287Z,3.18
2023-01-27T07:00:48.796Z,3.18
2023-01-27T07:03:18.132Z,3.32
2023-01-27T07:05:44.670Z,3.02
2023-01-27T07:08:11.312Z,3.17
2023-01-27T07:10:37.843Z,3.40
2023-01-27T07:13:09.593Z,3.41
2023-01-27T07:15:36.803Z,2.96
2023-01-27T07:18:04.479Z,3.16
2023-01-27T07:20:31.902Z,3.41
2023-01-27T07:23:02.521Z,3.76
2023-01-27T07:25:31.048Z,3.84
2023-01-27T07:27:58.301Z,4.10
2023-01-27T07:30:26.500Z,3.86
2023-01-27T07:32:53.797Z,3.57
2023-01-27T07:35:20.631Z,3.81
2023-01-27T07:37:47.209Z,3.88
2023-01-27T07:40:14.004Z,3.50
2023-01-27T07:42:41.344Z,3.22
2023-01-27T07:45:08.451Z,3.54
2023-01-27T07:47:35.166Z,3.69
2023-01-27T07:50:01.681Z,3.24
2023-01-27T07:52:28.248Z,3.48
2023-01-27T07:54:54.757Z,3.42
2023-01-27T07:57:21.294Z,3.31
2023-01-27T07:59:47.791Z,3.09
2023-01-27T08:02:14.377Z,3.43
2023-01-27T08:04:52.583Z,3.55
2023-01-27T08:07:19.721Z,3.68
2023-01-27T08:09:46.278Z,3.57
2023-01-27T08:12:12.779Z,3.65
2023-01-27T08:14:39.417Z,3.37
2023-01-27T08:17:05.982Z,3.77
2023-01-27T08:19:32.474Z,3.71
2023-01-27T08:21:58.981Z,3.89
2023-01-27T08:24:25.668Z,3.95
2023-01-27T08:26:52.316Z,4.04
2023-01-27T08:29:18.878Z,3.82
2023-01-27T08:31:45.497Z,3.63
2023-01-27T08:34:12.045Z,3.77
2023-01-27T08:36:41.276Z,3.93
2023-01-27T08:39:09.512Z,3.78
2023-01-27T08:41:36.133Z,3.54
2023-01-27T08:44:02.711Z,3.35
2023-01-27T08:46:29.466Z,3.36
2023-01-27T08:48:55.981Z,3.43
2023-01-27T08:51:22.484Z,3.37
2023-01-27T08:53:49.019Z,3.89
2023-01-27T08:56:16.593Z,3.89
2023-01-27T08:58:46.112Z,3.55
2023-01-27T09:01:12.940Z,3.81
2023-01-27T09:03:39.550Z,3.96
2023-01-27T09:06:09.592Z,4.12
2023-01-27T09:08:36.134Z,3.90
2023-01-27T09:11:17.338Z,4.07
2023-01-27T09:13:43.865Z,4.12
2023-01-27T09:16:10.505Z,3.12
2023-01-27T09:18:37.074Z,3.54
2023-01-27T09:21:06.839Z,3.75
2023-01-27T09:23:34.073Z,3.34
2023-01-27T09:26:00.599Z,3.61
2023-01-27T09:28:27.178Z,3.43
2023-01-27T09:31:00.420Z,3.59
2023-01-27T09:33:27.250Z,3.84
2023-01-27T09:36:04.335Z,4.12
2023-01-27T09:38:37.848Z,4.29
2023-01-27T09:41:32.031Z,4.47
2023-01-27T09:44:08.594Z,4.36
2023-01-27T09:47:00.524Z,4.09
2023-01-27T09:49:51.394Z,3.64
2023-01-27T09:53:11.030Z,4.10
2023-01-27T09:55:52.659Z,4.24
2023-01-27T09:58:36.743Z,3.71
2023-01-27T10:01:50.496Z,3.43
2023-01-27T10:04:49.764Z,3.28
2023-01-27T10:07:16.619Z,3.60
2023-01-27T10:10:03.193Z,3.66
2023-01-27T10:13:01.959Z,3.74
2023-01-27T10:15:32.003Z,3.86
2023-01-27T10:18:07.727Z,3.89
2023-01-27T10:20:47.390Z,4.04
2023-01-27T10:23:31.084Z,4.17
2023-01-27T10:26:19.514Z,4.31
2023-01-27T10:28:51.154Z,4.02
2023-01-27T10:31:27.478Z,3.91
2023-01-27T10:33:57.062Z,4.07
2023-01-27T10:36:38.588Z,3.41
2023-01-27T10:39:24.607Z,3.37
2023-01-27T10:42:12.403Z,3.95
2023-01-27T10:44:38.904Z,3.60
2023-01-27T10:47:29.886Z,3.65
2023-01-27T10:50:07.917Z,3.89
2023-01-27T10:53:12.000Z,4.26
2023-01-27T10:56:05.045Z,3.78
2023-01-27T10:58:44.007Z,3.64
2023-01-27T11:01:21.677Z,3.25
2023-01-27T11:04:06.082Z,3.09
2023-01-27T11:06:42.588Z,2.77
2023-01-27T11:09:33.891Z,2.94
2023-01-27T11:12:11.202Z,3.16
2023-01-27T11:14:51.013Z,3.32
2023-01-27T11:17:59.426Z,3.73
2023-01-27T11:20:38.653Z,4.17
2023-01-27T11:23:23.818Z,4.77
2023-01-27T11:26:17.909Z,5.03
2023-01-27T11:28:59.264Z,5.27
2023-01-27T11:31:31.905Z,5.44
2023-01-27T11:34:35.713Z,4.82
2023-01-27T11:37:18.579Z,3.85
2023-01-27T11:39:45.323Z,4.34
2023-01-27T11:42:13.223Z,4.68
2023-01-27T11:44:43.631Z,4.15
2023-01-27T11:47:23.395Z,3.48
2023-01-27T11:49:53.448Z,3.24
2023-01-27T11:52:23.505Z,2.88
2023-01-27T11:55:16.221Z,3.12
2023-01-27T11:57:47.757Z,3.20
2023-01-27T12:00:34.809Z,3.19
2023-01-27T12:03:16.332Z,3.16
2023-01-27T12:08:44.390Z,3.26
2023-01-27T12:11:21.668Z,3.33
2023-01-27T12:14:03.951Z,3.68
2023-01-27T12:16:51.062Z,3.63
2023-01-27T12:19:25.216Z,3.70
2023-01-27T12:21:57.716Z,3.23
2023-01-27T12:24:32.695Z,3.70
2023-01-27T12:27:01.198Z,3.85
2023-01-27T12:29:27.673Z,3.46
2023-01-27T12:31:58.125Z,3.81
2023-01-27T12:34:29.303Z,3.87
2023-01-27T12:36:57.576Z,3.63
2023-01-27T12:39:33.014Z,3.10
2023-01-27T12:41:59.631Z,3.65
2023-01-27T12:44:26.293Z,3.91
2023-01-27T12:47:00.806Z,4.20
2023-01-27T12:49:37.110Z,4.37
2023-01-27T12:52:07.118Z,4.04
2023-01-27T12:54:34.611Z,3.46
2023-01-27T12:57:05.438Z,3.38
2023-01-27T12:59:34.064Z,3.76
2023-01-27T13:02:20.238Z,3.59
2023-01-27T13:04:55.535Z,3.89
2023-01-27T13:07:38.149Z,3.39
2023-01-27T13:10:16.874Z,3.56
2023-01-27T13:12:52.549Z,3.59
2023-01-27T13:15:22.428Z,3.36
2023-01-27T13:17:54.006Z,3.13
2023-01-27T13:20:30.682Z,2.05
2023-01-27T13:23:04.201Z,2.55
2023-01-27T13:25:44.324Z,2.84
2023-01-27T13:28:18.993Z,3.06
2023-01-27T13:30:52.473Z,3.34
2023-01-27T13:33:39.772Z,3.66
2023-01-27T13:36:30.289Z,4.23
2023-01-27T13:39:35.356Z,4.24
2023-01-27T13:42:04.860Z,4.41
2023-01-27T13:45:12.460Z,4.69
2023-01-27T13:47:55.150Z,4.70
2023-01-27T13:50:30.876Z,4.47
2023-01-27T13:53:00.189Z,4.26
2023-01-27T13:55:45.662Z,4.48
2023-01-27T13:58:44.416Z,3.95
2023-01-27T14:01:29.293Z,3.89
2023-01-27T14:04:23.917Z,4.03
2023-01-27T14:07:19.723Z,4.39
2023-01-27T14:10:15.802Z,4.14
2023-01-27T14:12:53.604Z,4.04
2023-01-27T14:15:44.430Z,3.94
2023-01-27T14:18:23.828Z,4.32
2023-01-27T14:24:29.656Z,5.63
2023-01-27T14:27:12.481Z,5.11
2023-01-27T14:30:14.206Z,4.91
2023-01-27T14:32:56.019Z,5.04
2023-01-27T14:35:39.738Z,4.34
2023-01-27T14:38:15.406Z,4.40
2023-01-27T14:40:51.180Z,3.62
2023-01-27T14:43:35.487Z,3.40
2023-01-27T14:46:22.541Z,3.52
2023-01-27T14:49:21.663Z,3.49
2023-01-27T14:51:56.753Z,3.69
2023-01-27T14:54:23.426Z,4.10
2023-01-27T14:57:10.946Z,4.21
2023-01-27T15:00:02.307Z,4.30
2023-01-27T15:02:53.208Z,4.38
2023-01-27T15:05:54.570Z,4.69
2023-01-27T15:08:36.672Z,5.18
2023-01-27T15:11:27.300Z,4.91
2023-01-27T15:14:34.919Z,4.78
2023-01-27T15:17:39.191Z,5.41
2023-01-27T15:20:32.009Z,5.02
2023-01-27T15:23:07.289Z,5.42
2023-01-27T15:25:40.895Z,5.20
2023-01-27T15:28:15.126Z,4.87
2023-01-27T15:31:06.625Z,5.23
2023-01-27T15:33:48.168Z,5.32
2023-01-27T15:36:29.908Z,4.49
2023-01-27T15:39:20.210Z,4.09
2023-01-27T15:42:03.378Z,3.89
2023-01-27T15:44:41.837Z,3.00
2023-01-27T15:47:19.826Z,2.86
2023-01-27T15:49:51.141Z,2.67
2023-01-27T15:52:20.539Z,2.55
2023-01-27T15:54:51.186Z,2.30
2023-01-27T15:57:29.242Z,1.92
2023-01-27T16:00:07.047Z,1.81
2023-01-27T16:02:44.068Z,1.51
2023-01-27T16:05:24.923Z,1.51
2023-01-27T16:07:57.923Z,1.46
2023-01-27T16:10:31.134Z,1.46
2023-01-27T16:13:25.875Z,1.23
2023-01-27T16:16:14.130Z,1.37
2023-01-27T16:18:47.585Z,1.36
2023-01-27T16:21:36.663Z,1.31
2023-01-27T16:24:15.540Z,1.10
2023-01-27T16:26:50.206Z,1.15
2023-01-27T16:29:36.456Z,1.17
2023-01-27T16:32:07.163Z,1.09
2023-01-27T16:34:40.058Z,0.83
2023-01-27T16:37:22.183Z,0.70
2023-01-27T16:40:06.793Z,0.85
2023-01-27T16:42:40.759Z,0.43
2023-01-27T16:45:26.984Z,0.72
2023-01-27T16:48:06.435Z,0.56
2023-01-27T16:50:37.342Z,0.80
2023-01-27T16:53:15.375Z,0.96
2023-01-27T16:55:42.167Z,1.00
2023-01-27T16:58:21.925Z,0.56
2023-01-27T17:00:49.174Z,0.63
2023-01-27T17:03:21.032Z,0.82
2023-01-27T17:05:57.745Z,0.85
2023-01-27T17:08:26.960Z,1.02
2023-01-27T17:11:06.336Z,1.10
2023-01-27T17:13:46.952Z,1.23
2023-01-27T17:16:24.230Z,0.67
2023-01-27T17:18:53.531Z,0.99
2023-01-27T17:21:51.391Z,0.91
2023-01-27T17:24:24.851Z,1.41
2023-01-27T17:26:59.813Z,1.57
2023-01-27T17:29:34.562Z,1.23
2023-01-27T17:32:01.568Z,1.58
2023-01-27T17:34:28.549Z,1.37
2023-01-27T17:37:20.496Z,1.43
2023-01-27T17:39:52.629Z,1.39
2023-01-27T17:42:20.504Z,1.29
2023-01-27T17:44:48.481Z,1.33
2023-01-27T17:47:17.838Z,1.09
2023-01-27T17:49:48.874Z,1.28
2023-01-27T17:52:22.608Z,1.48
2023-01-27T17:54:50.258Z,1.20
2023-01-27T17:57:29.119Z,1.48
2023-01-27T18:00:04.372Z,1.54
2023-01-27T18:02:35.024Z,1.31
2023-01-27T18:05:05.922Z,1.55
2023-01-27T18:07:33.376Z,1.43
2023-01-27T18:09:59.917Z,1.63
2023-01-27T18:12:35.715Z,1.70
2023-01-27T18:15:37.502Z,1.47
2023-01-27T18:18:24.573Z,1.51
2023-01-27T18:21:08.992Z,1.54
2023-01-27T18:23:46.162Z,1.49
2023-01-27T18:26:37.537Z,1.62
2023-01-27T18:29:13.248Z,1.77
2023-01-27T18:31:48.217Z,1.69
2023-01-27T18:34:26.595Z,1.19
2023-01-27T18:37:00.399Z,1.36
2023-01-27T18:39:32.523Z,1.55
2023-01-27T18:41:59.856Z,1.46
2023-01-27T18:44:26.973Z,1.39
2023-01-27T18:47:17.269Z,1.42
2023-01-27T18:50:16.254Z,1.60
2023-01-27T18:52:43.191Z,1.59
2023-01-27T18:55:27.942Z,1.92
2023-01-27T18:57:57.234Z,1.52
2023-01-27T19:00:30.453Z,1.46
2023-01-27T19:03:01.603Z,1.88
2023-01-27T19:05:34.135Z,1.44
2023-01-27T19:08:02.066Z,1.86
2023-01-27T19:10:32.366Z,1.47
2023-01-27T19:13:01.161Z,1.24
2023-01-27T19:15:31.149Z,1.59
2023-01-27T19:18:00.153Z,1.30
2023-01-27T19:20:30.084Z,0.94
2023-01-27T19:22:58.914Z,0.90
2023-01-27T19:25:29.709Z,0.93
2023-01-27T19:28:02.975Z,0.97
2023-01-27T19:30:32.571Z,0.68
2023-01-27T19:32:59.296Z,1.00
2023-01-27T19:35:30.340Z,0.94
2023-01-27T19:38:02.452Z,0.98
2023-01-27T19:40:29.656Z,0.98
2023-01-27T19:42:58.298Z,0.96
2023-01-27T19:45:27.859Z,1.33
2023-01-27T19:47:54.549Z,1.36
2023-01-27T19:50:27.512Z,1.22
2023-01-27T19:52:54.431Z,1.16
2023-01-27T19:55:21.288Z,0.92
2023-01-27T19:57:49.151Z,0.99
2023-01-27T20:00:31.494Z,0.71
2023-01-27T20:02:58.923Z,0.98
2023-01-27T20:05:27.833Z,0.99
2023-01-27T20:07:57.008Z,1.32
2023-01-27T20:10:26.948Z,1.32
2023-01-27T20:12:56.170Z,1.58
2023-01-27T20:15:23.780Z,1.46
2023-01-27T20:17:52.192Z,1.91
2023-01-27T20:20:19.929Z,2.20
2023-01-27T20:22:46.574Z,2.72
2023-01-27T20:25:18.700Z,2.17
2023-01-27T20:27:49.203Z,2.55
2023-01-27T20:30:21.457Z,2.14
2023-01-27T20:32:48.426Z,2.18
2023-01-27T20:35:17.406Z,2.28
2023-01-27T20:37:46.459Z,2.38
2023-01-27T20:40:19.023Z,2.39
2023-01-27T20:42:45.597Z,2.13
2023-01-27T20:45:13.240Z,1.92
2023-01-27T20:47:40.331Z,2.36
2023-01-27T20:50:08.800Z,2.44
2023-01-27T20:52:36.885Z,2.21
2023-01-27T20:55:04.771Z,1.97
2023-01-27T20:57:31.360Z,1.89
2023-01-27T20:59:58.048Z,1.39
2023-01-27T21:02:25.640Z,1.46
2023-01-27T21:04:53.260Z,1.73
2023-01-27T21:07:20.948Z,1.56
2023-01-27T21:09:47.599Z,1.56
2023-01-27T21:12:14.053Z,1.71
2023-01-27T21:14:40.540Z,1.68
2023-01-27T21:17:07.389Z,1.73
2023-01-27T21:19:33.871Z,1.56
2023-01-27T21:22:00.364Z,1.50
2023-01-27T21:24:26.892Z,1.37
2023-01-27T21:26:53.426Z,1.65
2023-01-27T21:29:22.904Z,1.61
2023-01-27T21:31:49.514Z,1.80
2023-01-27T21:34:16.147Z,1.72
2023-01-27T21:36:42.704Z,1.83
2023-01-27T21:39:09.297Z,1.93
2023-01-27T21:41:35.802Z,2.56
2023-01-27T21:44:03.461Z,1.90
2023-01-27T21:46:30.122Z,2.01
2023-01-27T21:48:56.784Z,1.43
2023-01-27T21:51:23.244Z,2.06
2023-01-27T21:53:49.715Z,2.12
2023-01-27T21:56:16.256Z,1.83
2023-01-27T21:58:42.747Z,1.86
2023-01-27T22:01:10.838Z,1.90
2023-01-27T22:03:38.287Z,2.02
2023-01-27T22:06:06.346Z,2.21
2023-01-27T22:08:33.151Z,2.01
2023-01-27T22:11:10.902Z,1.94
2023-01-27T22:13:38.110Z,1.91
2023-01-27T22:16:05.253Z,2.39
2023-01-27T22:18:31.825Z,2.19
2023-01-27T22:21:01.896Z,2.72
2023-01-27T22:23:28.472Z,2.40
2023-01-27T22:25:55.058Z,2.52
2023-01-27T22:28:21.605Z,2.57
2023-01-27T22:30:48.624Z,2.41
2023-01-27T22:33:15.188Z,3.05
2023-01-27T22:35:41.835Z,2.35
2023-01-27T22:38:08.441Z,2.67
2023-01-27T22:40:34.903Z,2.40
2023-01-27T22:43:01.683Z,2.76
2023-01-27T22:45:28.405Z,2.75
2023-01-27T22:47:54.965Z,2.79
2023-01-27T22:50:21.421Z,3.06
2023-01-27T22:52:47.917Z,2.44
2023-01-27T22:55:16.122Z,2.38
2023-01-27T22:57:44.712Z,2.66
2023-01-27T23:00:15.146Z,2.56
2023-01-27T23:02:41.921Z,2.85
2023-01-27T23:05:14.225Z,2.78
2023-01-27T23:07:40.882Z,2.58
2023-01-27T23:10:07.951Z,2.57
2023-01-27T23:12:34.456Z,2.36
2023-01-27T23:15:01.287Z,2.42
2023-01-27T23:17:27.930Z,2.25
2023-01-27T23:19:54.432Z,2.92
2023-01-27T23:22:28.226Z,2.62
2023-01-27T23:24:54.880Z,2.51
2023-01-27T23:27:21.434Z,2.61
2023-01-27T23:29:48.106Z,2.71
2023-01-27T23:32:14.740Z,2.31
2023-01-27T23:34:47.546Z,2.50
2023-01-27T23:37:14.355Z,2.26
2023-01-27T23:39:43.823Z,2.02
2023-01-27T23:42:10.508Z,2.21
2023-01-27T23:44:37.277Z,2.04
2023-01-27T23:47:03.810Z,1.91
2023-01-27T23:49:30.293Z,1.97
2023-01-27T23:51:56.775Z,2.05
2023-01-27T23:54:23.243Z,1.93
2023-01-27T23:56:49.735Z,1.90
2023-01-27T23:59:16.229Z,1.56
